Time;durP1;ratioP1;P1;durP2;ratioP2;P2;SDS_P1;SDS_P2;PMS_P1;PMS_P2;Temp;Humidity;BMP_temperature;BMP_pressure;BME280_temperature;BME280_humidity;BME280_pressure;Samples;Min_cycle;Max_cycle;Signal;HPM_P1;HPM_P2
2021/12/21 00:00:31;;;;;;;26.93;11.48;;;;;;;0.42;71.72;101132.40;2128788;82;31135;-66
2021/12/21 00:03:35;;;;;;;17.03;7.67;;;;;;;0.43;71.72;101137.22;2141426;82;27691;-66
2021/12/21 00:06:37;;;;;;;17.55;7.90;;;;;;;0.42;71.66;101135.03;2175138;81;29504;-75
2021/12/21 00:09:39;;;;;;;16.65;7.75;;;;;;;0.42;71.68;101132.81;2140874;83;31110;-74
2021/12/21 00:13:00;;;;;;;15.15;6.80;;;;;;;0.40;71.65;101131.50;2172944;81;33022;-73
2021/12/21 00:16:01;;;;;;;16.23;6.97;;;;;;;0.40;71.62;101136.77;2138057;83;29357;-72
2021/12/21 00:21:58;;;;;;;13.68;7.03;;;;;;;0.35;71.59;101133.67;2140310;83;28713;-72
2021/12/21 00:24:55;;;;;;;18.57;7.78;;;;;;;0.33;71.60;101141.58;2173091;81;31012;-73
2021/12/21 00:27:57;;;;;;;19.17;7.62;;;;;;;0.34;71.67;101143.77;2152001;82;33034;-64
2021/12/21 00:30:59;;;;;;;20.50;8.73;;;;;;;0.33;71.64;101148.17;2168116;82;30529;-63
2021/12/21 00:34:02;;;;;;;19.55;9.18;;;;;;;0.32;71.64;101147.72;2115758;84;27731;-72
2021/12/21 00:37:06;;;;;;;21.80;8.48;;;;;;;0.31;71.66;101148.59;2167659;82;29363;-76
2021/12/21 00:40:10;;;;;;;20.65;8.70;;;;;;;0.30;71.71;101146.83;2140337;82;31131;-64
2021/12/21 00:43:12;;;;;;;15.60;7.20;;;;;;;0.30;71.65;101148.14;2174441;81;32915;-61
2021/12/21 00:46:15;;;;;;;15.48;8.05;;;;;;;0.29;71.56;101145.92;2140396;83;30365;-60
2021/12/21 00:49:17;;;;;;;14.33;6.17;;;;;;;0.27;71.61;101141.53;2151705;81;27680;-70
2021/12/21 00:52:19;;;;;;;16.60;6.58;;;;;;;0.26;71.50;101149.85;2168511;81;29888;-68
2021/12/21 00:55:25;;;;;;;15.68;6.80;;;;;;;0.23;71.48;101143.27;2169625;81;32447;-78
2021/12/21 00:58:27;;;;;;;11.15;6.08;;;;;;;0.22;71.51;101149.41;2178733;81;32970;-77
2021/12/21 01:01:28;;;;;;;17.40;6.92;;;;;;;0.21;71.65;101146.33;2190594;81;30187;-70
2021/12/21 01:04:36;;;;;;;15.32;6.30;;;;;;;0.22;71.57;101140.61;2190948;81;27746;-70
2021/12/21 01:07:40;;;;;;;16.48;5.90;;;;;;;0.22;71.60;101149.83;2191313;81;28828;-68
2021/12/21 01:10:51;;;;;;;13.68;7.00;;;;;;;0.20;71.64;101157.73;2191164;81;31807;-60
2021/12/21 01:14:06;;;;;;;17.65;8.10;;;;;;;0.19;71.68;101161.66;2171174;81;32966;-78
2021/12/21 01:17:21;;;;;;;15.80;7.50;;;;;;;0.17;71.70;101156.84;2165143;82;30638;-70
2021/12/21 01:20:35;;;;;;;15.98;7.58;;;;;;;0.15;71.80;101155.50;2167128;82;27683;-75
2021/12/21 01:26:58;;;;;;;21.20;8.65;;;;;;;0.12;71.93;101160.73;2187534;81;31394;-74
2021/12/21 01:30:06;;;;;;;18.87;8.88;;;;;;;0.10;71.92;101159.42;2173581;81;32886;-77
2021/12/21 01:36:17;;;;;;;18.37;8.05;;;;;;;0.05;71.86;101157.62;2097575;84;28349;-60
2021/12/21 01:52:12;;;;;;;19.10;8.18;;;;;;;0.03;72.13;101169.91;2062146;86;27680;-60
2021/12/21 01:55:14;;;;;;;20.55;8.53;;;;;;;0.02;72.20;101169.00;2062357;86;28718;-75
2021/12/21 01:58:16;;;;;;;18.37;8.55;;;;;;;0.03;72.21;101170.77;2061121;86;32352;-69
2021/12/21 02:01:21;;;;;;;23.27;9.90;;;;;;;0.01;72.16;101166.38;2059184;86;33356;-75
2021/12/21 02:04:23;;;;;;;26.17;10.40;;;;;;;0.01;72.14;101163.73;2033990;86;29769;-61
2021/12/21 02:07:25;;;;;;;19.05;9.55;;;;;;;-0.01;72.19;101159.34;1973983;90;27722;-62
2021/12/21 02:10:27;;;;;;;17.70;8.35;;;;;;;0.01;72.22;101156.70;2025449;87;29927;-75
2021/12/21 02:13:32;;;;;;;19.32;9.00;;;;;;;0.01;72.21;101155.37;2100637;82;31946;-74
2021/12/21 02:16:43;;;;;;;17.42;8.28;;;;;;;0.01;72.10;101151.88;2084311;85;33522;-63
2021/12/21 02:20:05;;;;;;;24.40;8.35;;;;;;;-0.03;72.13;101149.67;2146749;82;29731;-65
2021/12/21 02:29:41;;;;;;;17.23;8.03;;;;;;;-0.05;72.13;101148.77;2053171;86;32055;-73
2021/12/21 02:32:43;;;;;;;16.37;8.20;;;;;;;-0.05;72.15;101144.38;2034015;87;33852;-75
2021/12/21 02:35:45;;;;;;;18.57;8.33;;;;;;;-0.03;72.20;101147.03;2036828;87;30240;-61
2021/12/21 02:38:46;;;;;;;17.25;7.95;;;;;;;-0.03;72.17;101147.91;2039903;87;27741;-68
2021/12/21 02:41:48;;;;;;;17.80;8.45;;;;;;;-0.03;72.19;101136.05;2040099;87;29076;-61
2021/12/21 02:44:50;;;;;;;16.82;8.85;;;;;;;-0.03;72.16;101138.69;2038226;86;32309;-60
2021/12/21 02:47:52;;;;;;;19.37;8.95;;;;;;;-0.02;72.19;101133.00;2011992;88;34220;-59
2021/12/21 02:50:54;;;;;;;21.48;9.05;;;;;;;-0.03;72.12;101137.81;2013280;88;30537;-59
2021/12/21 02:53:56;;;;;;;21.02;8.58;;;;;;;-0.03;72.15;101137.81;2029561;87;27610;-67
2021/12/21 02:56:58;;;;;;;25.08;9.80;;;;;;;-0.03;72.14;101140.00;2034061;87;28841;-64
2021/12/21 03:00:04;;;;;;;17.80;7.95;;;;;;;-0.03;72.22;101129.91;2033761;87;31162;-61
2021/12/21 03:03:11;;;;;;;18.57;8.98;;;;;;;-0.01;72.19;101130.81;2037868;86;34183;-72
2021/12/21 03:06:12;;;;;;;19.07;7.70;;;;;;;-0.01;72.24;101130.81;2029187;86;29491;-63
2021/12/21 03:15:29;;;;;;;18.75;7.53;;;;;;;-0.02;72.20;101134.31;2028110;87;31034;-73
2021/12/21 03:18:31;;;;;;;18.50;7.65;;;;;;;-0.02;72.18;101128.59;2030145;87;33933;-75
2021/12/21 03:21:35;;;;;;;18.45;7.33;;;;;;;-0.02;72.17;101126.41;2033794;87;30525;-75
2021/12/21 03:24:38;;;;;;;17.73;8.03;;;;;;;-0.04;72.20;101126.83;2024001;87;27738;-61
2021/12/21 03:27:40;;;;;;;13.28;6.90;;;;;;;-0.06;72.27;101121.53;2035757;87;29196;-62
2021/12/21 03:30:42;;;;;;;12.45;6.45;;;;;;;-0.04;72.28;101114.53;2035814;87;30854;-69
2021/12/21 03:33:44;;;;;;;14.23;6.83;;;;;;;-0.03;72.28;101108.84;2036118;87;34101;-75
2021/12/21 03:36:46;;;;;;;18.52;7.55;;;;;;;-0.04;72.23;101116.30;2041985;87;29491;-76
2021/12/21 03:39:50;;;;;;;18.52;7.80;;;;;;;-0.05;72.25;101118.03;2042413;87;27614;-75
2021/12/21 03:42:51;;;;;;;14.55;6.85;;;;;;;-0.04;72.30;101121.11;2040270;87;29066;-69
2021/12/21 03:46:01;;;;;;;12.93;6.50;;;;;;;-0.03;72.30;101123.33;2035925;87;31605;-67
2021/12/21 03:48:58;;;;;;;16.30;6.97;;;;;;;-0.04;72.24;101117.61;2036091;87;34275;-64
2021/12/21 03:52:13;;;;;;;15.32;7.35;;;;;;;-0.05;72.21;101110.12;2042259;87;30430;-74
2021/12/21 03:55:16;;;;;;;15.85;7.30;;;;;;;-0.04;72.24;101113.21;2042296;87;27745;-68
2021/12/21 03:58:18;;;;;;;13.68;6.60;;;;;;;-0.05;72.27;101104.00;2042001;87;29437;-76
2021/12/21 04:01:19;;;;;;;17.57;7.28;;;;;;;-0.06;72.17;101101.78;2042286;87;31964;-73
2021/12/21 04:04:22;;;;;;;17.90;8.10;;;;;;;-0.06;72.27;101105.73;2035775;87;33373;-76
2021/12/21 04:07:26;;;;;;;21.55;8.55;;;;;;;-0.05;72.37;101108.81;2035789;87;29390;-67
2021/12/21 04:10:28;;;;;;;17.70;8.50;;;;;;;-0.05;72.28;101111.90;2035990;87;27715;-70
2021/12/21 04:13:31;;;;;;;19.55;8.70;;;;;;;-0.04;72.19;101120.25;2035932;87;29375;-73
2021/12/21 04:16:33;;;;;;;17.73;8.35;;;;;;;-0.04;72.37;101119.80;2035886;87;31073;-70
2021/12/21 04:19:35;;;;;;;17.67;7.83;;;;;;;-0.03;72.32;101116.74;2040677;87;34259;-78
2021/12/21 04:22:37;;;;;;;15.28;6.60;;;;;;;-0.02;72.41;101128.59;2042300;87;29300;-76
2021/12/21 04:25:40;;;;;;;15.98;7.95;;;;;;;-0.02;72.38;101131.23;2039522;87;27732;-71
2021/12/21 04:28:42;;;;;;;20.40;8.38;;;;;;;-0.01;72.32;101130.36;2045713;86;29920;-73
2021/12/21 04:31:44;;;;;;;14.47;7.40;;;;;;;0.02;72.30;101131.26;2046088;86;31384;-70
2021/12/21 04:34:46;;;;;;;18.57;8.05;;;;;;;0.01;72.32;101129.48;2045756;87;33549;-73
2021/12/21 04:37:53;;;;;;;18.15;8.10;;;;;;;0.02;72.38;101136.52;2046085;87;30435;-76
2021/12/21 04:41:07;;;;;;;22.48;8.90;;;;;;;0.04;72.43;101138.73;2050833;86;27713;-70
2021/12/21 04:44:03;;;;;;;19.12;7.70;;;;;;;0.04;72.32;101141.38;2048840;86;28667;-71
2021/12/21 04:47:06;;;;;;;17.17;7.70;;;;;;;0.04;72.38;101149.28;2037594;86;31046;-69
2021/12/21 04:50:09;;;;;;;14.33;7.00;;;;;;;0.05;72.43;101137.42;2051267;86;33529;-73
2021/12/21 04:53:11;;;;;;;15.60;7.80;;;;;;;0.09;72.43;101143.59;2050754;86;29427;-76
2021/12/21 04:56:14;;;;;;;19.55;7.85;;;;;;;0.12;72.43;101142.30;2048968;86;28417;-71
2021/12/21 04:59:16;;;;;;;19.12;8.00;;;;;;;0.14;72.41;101146.73;2050993;86;29166;-70
2021/12/21 05:02:18;;;;;;;14.73;6.97;;;;;;;0.17;72.41;101147.62;2025823;86;32324;-67
2021/12/21 05:05:22;;;;;;;16.80;6.92;;;;;;;0.19;72.41;101150.70;2017543;88;33618;-77
2021/12/21 05:08:29;;;;;;;17.15;7.40;;;;;;;0.21;72.41;101154.23;2018085;88;30277;-76
2021/12/21 05:11:32;;;;;;;17.80;8.38;;;;;;;0.24;72.47;101153.36;2016316;88;27735;-77
2021/12/21 05:14:31;;;;;;;16.67;7.47;;;;;;;0.26;72.46;101155.58;2016489;88;28915;-77
2021/12/21 05:17:34;;;;;;;18.60;7.78;;;;;;;0.30;72.49;101157.37;2016366;88;32332;-78
2021/12/21 05:20:40;;;;;;;18.60;7.17;;;;;;;0.32;72.58;101154.73;2016139;88;34270;-60
2021/12/21 05:23:41;;;;;;;12.07;5.90;;;;;;;0.33;72.39;101155.17;2016148;88;30691;-60
2021/12/21 05:26:45;;;;;;;16.15;6.35;;;;;;;0.33;72.39;101158.71;2010192;88;27660;-61
2021/12/21 05:29:50;;;;;;;13.58;6.95;;;;;;;0.34;72.40;101157.81;2006575;88;28826;-60
2021/12/21 05:32:54;;;;;;;12.85;6.72;;;;;;;0.35;72.30;101157.39;2007805;88;31055;-60
2021/12/21 05:35:56;;;;;;;12.50;6.03;;;;;;;0.35;72.44;101157.39;2007647;87;33828;-60
2021/12/21 05:39:03;;;;;;;15.90;7.15;;;;;;;0.37;72.53;101160.47;2006992;88;30027;-60
2021/12/21 05:42:05;;;;;;;15.08;7.05;;;;;;;0.38;72.36;101154.78;2006688;88;27712;-60
2021/12/21 05:45:09;;;;;;;15.70;7.30;;;;;;;0.40;72.34;101159.63;2007095;88;28834;-62
2021/12/21 05:48:12;;;;;;;16.87;7.57;;;;;;;0.40;72.28;101155.67;2038733;87;31102;-60
2021/12/21 05:51:15;;;;;;;15.05;7.35;;;;;;;0.39;72.22;101153.45;2042062;87;33141;-60
2021/12/21 05:54:21;;;;;;;19.25;8.33;;;;;;;0.40;72.24;101159.63;2041823;87;29923;-60
2021/12/21 05:57:24;;;;;;;18.75;9.15;;;;;;;0.41;72.29;101156.13;2041853;87;27614;-70
2021/12/21 06:00:30;;;;;;;21.42;10.85;;;;;;;0.44;72.38;101164.02;2041649;85;29678;-60
2021/12/21 06:03:32;;;;;;;22.10;14.43;;;;;;;0.43;72.34;101160.52;2035206;87;32264;-60
2021/12/21 06:06:34;;;;;;;37.48;25.40;;;;;;;0.44;72.38;101166.24;2035550;87;34144;-59
2021/12/21 06:09:36;;;;;;;34.00;20.30;;;;;;;0.44;72.43;101160.97;2040687;87;30457;-60
2021/12/21 06:22:52;;;;;;;59.90;23.22;;;;;;;0.45;72.20;101173.70;2035379;87;33401;-60
2021/12/21 06:25:56;;;;;;;31.15;14.68;;;;;;;0.46;72.27;101175.46;2034240;87;30399;-60
2021/12/21 06:28:57;;;;;;;54.60;25.90;;;;;;;0.45;72.21;101173.28;2035428;87;27722;-60
2021/12/21 06:31:59;;;;;;;71.87;30.00;;;;;;;0.45;72.26;101182.50;2042094;87;29501;-60
2021/12/21 06:35:02;;;;;;;31.55;16.00;;;;;;;0.44;72.15;101171.93;2042361;87;32019;-60
2021/12/21 06:38:06;;;;;;;19.48;9.08;;;;;;;0.44;72.19;101181.16;2008091;88;33832;-59
2021/12/21 06:41:09;;;;;;;18.45;9.40;;;;;;;0.42;72.20;101179.84;2007556;87;30542;-69
2021/12/21 06:44:14;;;;;;;19.07;8.03;;;;;;;0.42;72.20;101182.48;2036085;85;27800;-60
2021/12/21 06:53:58;;;;;;;25.43;13.88;;;;;;;0.36;72.17;101188.15;2035582;87;33161;-65
2021/12/21 06:57:01;;;;;;;19.30;10.13;;;;;;;0.34;72.20;101200.43;2035695;87;29430;-60
2021/12/21 07:00:05;;;;;;;16.62;8.05;;;;;;;0.31;72.26;101197.34;2035555;87;28315;-74
2021/12/21 07:03:08;;;;;;;17.87;8.83;;;;;;;0.30;72.22;101191.62;2037472;87;29274;-59
2021/12/21 07:06:10;;;;;;;17.77;7.97;;;;;;;0.28;72.27;101194.23;2040764;85;31199;-61
2021/12/21 07:09:31;;;;;;;19.02;7.97;;;;;;;0.29;72.38;101189.41;2041780;87;34083;-59
2021/12/21 07:18:58;;;;;;;16.73;8.15;;;;;;;0.29;72.41;101203.91;1940561;91;29541;-59
2021/12/21 07:22:00;;;;;;;17.73;8.05;;;;;;;0.30;72.50;101208.30;1940316;91;32395;-59
2021/12/21 07:25:03;;;;;;;21.65;9.18;;;;;;;0.30;72.40;101205.67;1940387;91;33078;-61
2021/12/21 07:28:05;;;;;;;18.40;8.43;;;;;;;0.30;72.36;101202.17;1964994;89;29346;-67
2021/12/21 07:31:07;;;;;;;16.97;8.53;;;;;;;0.33;72.46;101207.89;1981765;89;27848;-61
2021/12/21 07:34:09;;;;;;;14.87;8.03;;;;;;;0.34;72.42;101213.61;1948863;91;30193;-60
2021/12/21 07:37:12;;;;;;;17.25;8.20;;;;;;;0.36;72.50;101215.38;1981635;89;32272;-60
2021/12/21 07:40:14;;;;;;;24.37;9.50;;;;;;;0.40;72.59;101218.48;1981649;89;34400;-64
2021/12/21 07:43:16;;;;;;;16.85;8.38;;;;;;;0.42;72.45;101214.11;1982003;89;29753;-61
2021/12/21 07:46:18;;;;;;;18.62;8.05;;;;;;;0.45;72.47;101217.19;1981589;89;27752;-61
2021/12/21 07:49:21;;;;;;;16.82;8.40;;;;;;;0.47;72.38;101210.63;1981531;89;30033;-64
2021/12/21 07:52:24;;;;;;;19.40;8.88;;;;;;;0.51;72.38;101212.39;1988647;89;31082;-62
2021/12/21 07:55:26;;;;;;;15.83;8.18;;;;;;;0.53;72.42;101211.55;1982026;89;33805;-59
2021/12/21 07:58:29;;;;;;;18.98;8.98;;;;;;;0.54;72.35;101207.14;2013141;88;30681;-61
2021/12/21 08:01:32;;;;;;;17.45;7.55;;;;;;;0.64;72.25;101222.17;2032709;87;27654;-60
2021/12/21 08:04:36;;;;;;;13.58;7.37;;;;;;;0.67;72.14;101216.89;2030033;87;28724;-62
2021/12/21 08:07:50;;;;;;;11.53;5.95;;;;;;;0.68;71.87;101219.97;2031191;87;31676;-63
2021/12/21 08:10:54;;;;;;;10.13;5.10;;;;;;;0.72;71.87;101219.58;2028687;86;33132;-60
2021/12/21 08:13:56;;;;;;;11.40;5.08;;;;;;;0.77;71.86;101223.56;2027676;87;31424;-60
2021/12/21 08:16:58;;;;;;;9.35;4.65;;;;;;;0.79;71.57;101225.32;2032087;87;28094;-65
2021/12/21 08:20:00;;;;;;;12.20;4.58;;;;;;;0.82;71.52;101225.34;2047600;86;29871;-63
2021/12/21 08:23:03;;;;;;;9.75;3.77;;;;;;;0.84;71.33;101219.64;2056206;86;31888;-63
2021/12/21 08:26:06;;;;;;;10.50;4.12;;;;;;;0.88;71.19;101221.43;2043393;86;32937;-61
2021/12/21 08:29:08;;;;;;;12.85;4.85;;;;;;;0.91;71.18;101224.51;2057227;86;31566;-60
2021/12/21 08:32:10;;;;;;;8.58;4.42;;;;;;;0.96;71.26;101223.20;2057344;86;27758;-64
2021/12/21 08:35:12;;;;;;;12.23;5.03;;;;;;;1.00;71.09;101231.14;2057205;86;29929;-70
2021/12/21 08:38:16;;;;;;;15.10;5.87;;;;;;;1.08;71.03;101235.13;2055966;86;32320;-61
2021/12/21 08:41:20;;;;;;;9.73;4.22;;;;;;;1.11;70.82;101236.47;2040268;87;33261;-79
2021/12/21 08:44:25;;;;;;;13.75;5.40;;;;;;;1.12;70.75;101239.55;2047763;86;30205;-63
2021/12/21 08:47:28;;;;;;;;;;;;;;;1.18;70.88;101242.23;2045719;86;27661;-63
2021/12/21 08:50:32;;;;;;;11.60;4.65;;;;;;;1.25;70.83;101243.56;2081607;85;29138;-70
2021/12/21 08:53:36;;;;;;;12.40;5.47;;;;;;;1.28;70.84;101243.58;2084315;85;32250;-62
2021/12/21 08:56:38;;;;;;;10.95;4.60;;;;;;;1.34;70.59;101237.02;2061045;85;33923;-61
2021/12/21 08:59:40;;;;;;;9.90;5.30;;;;;;;1.35;70.37;101247.56;2030055;87;28660;-65
2021/12/21 09:02:42;;;;;;;13.65;5.33;;;;;;;1.40;70.61;101248.03;2039740;87;27777;-60
2021/12/21 09:05:44;;;;;;;16.20;7.42;;;;;;;1.47;70.68;101245.87;2033184;87;30250;-62
2021/12/21 09:08:46;;;;;;;18.07;6.53;;;;;;;1.54;70.62;101241.48;2033749;86;32227;-63
2021/12/21 09:11:50;;;;;;;11.93;6.65;;;;;;;1.61;70.41;101245.89;2034025;87;33938;-61
2021/12/21 09:14:53;;;;;;;14.45;7.00;;;;;;;1.64;70.38;101244.58;2034005;87;29388;-73
2021/12/21 09:17:56;;;;;;;15.00;6.45;;;;;;;1.69;70.28;101248.13;2033999;87;27696;-60
2021/12/21 09:20:58;;;;;;;14.75;6.42;;;;;;;1.75;70.24;101250.77;2028411;86;29059;-64
2021/12/21 09:24:01;;;;;;;15.65;6.53;;;;;;;1.80;70.15;101246.38;2031130;86;32270;-61
2021/12/21 09:27:04;;;;;;;14.75;6.62;;;;;;;1.87;70.10;101239.80;2026268;87;34196;-61
2021/12/21 09:30:11;;;;;;;15.90;6.35;;;;;;;1.92;70.13;101238.92;2010764;88;29388;-65
2021/12/21 09:33:13;;;;;;;17.77;6.67;;;;;;;2.01;69.97;101242.02;2011251;88;27656;-61
2021/12/21 09:36:15;;;;;;;19.30;9.23;;;;;;;2.09;69.84;101240.23;2011142;88;29856;-61
2021/12/21 09:39:17;;;;;;;27.45;14.68;;;;;;;2.17;69.70;101238.92;2010861;88;32246;-64
2021/12/21 09:42:23;;;;;;;34.23;20.17;;;;;;;2.24;69.50;101240.70;2010629;88;33799;-70
2021/12/21 09:45:27;;;;;;;36.17;20.30;;;;;;;2.29;69.43;101231.44;2010783;88;30161;-62
2021/12/21 09:48:30;;;;;;;24.07;13.93;;;;;;;2.35;69.21;101242.45;2010819;88;27729;-59
2021/12/21 09:51:35;;;;;;;16.23;10.75;;;;;;;2.40;69.08;101241.56;2011020;88;29354;-60
2021/12/21 09:54:41;;;;;;;23.50;13.43;;;;;;;2.42;68.74;101241.13;2011305;88;31043;-73
2021/12/21 09:57:48;;;;;;;20.52;9.30;;;;;;;2.47;68.74;101238.92;2010213;88;33024;-67
2021/12/21 10:00:50;;;;;;;18.73;10.38;;;;;;;2.51;68.66;101234.94;2026510;87;30084;-60
2021/12/21 10:03:53;;;;;;;14.30;6.75;;;;;;;2.55;68.60;101231.88;2011030;87;27749;-59
2021/12/21 10:06:57;;;;;;;20.15;6.78;;;;;;;2.62;68.56;101234.94;2010491;88;29574;-60
2021/12/21 10:10:15;;;;;;;11.93;6.53;;;;;;;2.64;68.28;101234.95;2011344;88;32327;-62
2021/12/21 10:13:25;;;;;;;12.90;7.17;;;;;;;2.67;68.11;101230.95;2010956;88;34083;-59
2021/12/21 10:16:27;;;;;;;19.85;7.87;;;;;;;2.73;67.89;101228.30;2036095;87;29346;-59
2021/12/21 10:19:30;;;;;;;24.63;12.40;;;;;;;2.77;67.64;101227.84;2043883;87;28142;-60
2021/12/21 10:22:33;;;;;;;14.25;7.53;;;;;;;2.81;67.60;101229.61;2021523;87;28685;-63
2021/12/21 10:25:46;;;;;;;19.65;7.22;;;;;;;2.83;67.53;101230.48;2010900;88;31872;-60
2021/12/21 10:29:00;;;;;;;16.27;6.85;;;;;;;2.89;67.70;101231.35;2007536;87;33890;-64
2021/12/21 10:32:03;;;;;;;12.88;5.95;;;;;;;3.00;67.75;101232.64;2035745;87;30577;-72
2021/12/21 10:35:10;;;;;;;9.95;5.72;;;;;;;3.09;67.70;101233.48;2035747;87;27691;-61
2021/12/21 10:38:12;;;;;;;15.43;6.15;;;;;;;3.19;67.72;101228.16;2040065;87;28839;-74
2021/12/21 10:41:19;;;;;;;14.15;6.10;;;;;;;3.27;67.15;101231.23;2031488;87;31093;-63
2021/12/21 10:44:21;;;;;;;9.70;5.35;;;;;;;3.28;66.99;101229.02;2035252;87;32967;-66
2021/12/21 10:47:23;;;;;;;10.38;6.08;;;;;;;3.31;66.74;101227.23;2038364;85;29376;-69
2021/12/21 10:50:28;;;;;;;28.52;10.43;;;;;;;3.27;66.53;101222.83;2041288;85;27729;-64
2021/12/21 10:53:32;;;;;;;23.83;9.25;;;;;;;3.31;66.19;101227.23;2052194;85;28665;-63
2021/12/21 10:56:34;;;;;;;11.78;6.58;;;;;;;3.34;65.93;101221.92;2053627;85;32344;-62
2021/12/21 10:59:42;;;;;;;13.40;7.40;;;;;;;3.36;65.56;101215.28;2065920;85;33763;-62
2021/12/21 11:02:47;;;;;;;9.55;5.53;;;;;;;3.39;65.62;101210.43;2057327;85;29379;-63
2021/12/21 11:05:48;;;;;;;16.42;7.95;;;;;;;3.39;65.04;101209.97;2047568;85;27866;-62
2021/12/21 11:08:54;;;;;;;17.37;6.97;;;;;;;3.42;65.22;101203.77;2054211;85;29337;-61
2021/12/21 11:11:58;;;;;;;18.35;8.45;;;;;;;3.47;65.25;101213.91;2048676;85;31241;-61
2021/12/21 11:15:01;;;;;;;14.10;7.25;;;;;;;3.52;64.90;101213.88;2053950;85;33069;-61
2021/12/21 11:18:09;;;;;;;16.82;7.47;;;;;;;3.54;64.96;101210.34;2075706;85;29720;-60
2021/12/21 11:21:11;;;;;;;11.83;6.47;;;;;;;3.52;64.88;101207.25;2075081;85;28302;-62
2021/12/21 11:24:19;;;;;;;11.35;6.28;;;;;;;3.52;64.80;101208.14;2075045;85;28677;-62
2021/12/21 11:27:23;;;;;;;13.38;6.70;;;;;;;3.52;64.66;101204.59;2047848;85;31168;-63
2021/12/21 11:30:25;;;;;;;23.05;9.60;;;;;;;3.50;64.55;101203.30;2040581;85;34330;-61
2021/12/21 11:33:30;;;;;;;31.95;10.48;;;;;;;3.49;64.46;101202.86;2041521;85;30628;-59
2021/12/21 11:39:52;;;;;;;31.17;12.63;;;;;;;3.53;64.02;101201.06;2041068;85;29985;-61
2021/12/21 11:43:14;;;;;;;32.60;15.98;;;;;;;3.55;64.03;101200.19;2047932;85;32267;-61
2021/12/21 11:46:24;;;;;;;16.93;8.20;;;;;;;3.61;64.02;101201.91;2075655;85;33844;-60
2021/12/21 11:49:35;;;;;;;19.55;8.98;;;;;;;3.66;63.56;101197.44;2048061;85;30212;-59
2021/12/21 11:52:53;;;;;;;19.73;7.05;;;;;;;3.68;63.53;101196.13;2049175;85;27761;-61
2021/12/21 11:55:55;;;;;;;10.75;6.17;;;;;;;3.69;63.61;101196.10;2075968;85;29040;-61
2021/12/21 11:59:01;;;;;;;10.80;5.53;;;;;;;3.72;63.54;101189.92;2076025;85;31179;-60
2021/12/21 12:02:04;;;;;;;16.82;5.95;;;;;;;3.75;62.97;101192.53;2064838;85;33846;-62
2021/12/21 12:05:18;;;;;;;17.12;7.15;;;;;;;3.75;62.94;101188.12;2036158;87;29383;-61
2021/12/21 12:08:21;;;;;;;18.07;9.28;;;;;;;3.69;62.94;101189.48;2021728;87;27794;-62
2021/12/21 12:11:36;;;;;;;18.05;8.15;;;;;;;3.65;62.76;101186.41;2035179;87;30105;-62
2021/12/21 12:14:41;;;;;;;18.50;6.03;;;;;;;3.61;62.71;101183.37;2035199;87;31780;-66
2021/12/21 12:17:50;;;;;;;21.33;10.50;;;;;;;3.58;62.92;101187.36;2035859;87;32964;-59
2021/12/21 12:20:52;;;;;;;24.20;10.05;;;;;;;3.54;62.91;101183.85;2035628;87;30518;-64
2021/12/21 12:24:04;;;;;;;23.92;10.90;;;;;;;3.48;62.55;101182.55;2039138;87;27699;-60
2021/12/21 12:27:16;;;;;;;14.87;7.25;;;;;;;3.40;62.71;101177.30;2051476;85;28947;-60
2021/12/21 12:30:22;;;;;;;14.85;7.47;;;;;;;3.33;62.44;101182.19;2090923;85;31251;-64
2021/12/21 12:33:24;;;;;;;16.65;7.72;;;;;;;3.23;62.36;101182.67;2057579;86;33820;-59
2021/12/21 12:36:51;;;;;;;22.35;7.15;;;;;;;3.13;62.19;101187.16;2068944;85;30683;-62
2021/12/21 12:39:55;;;;;;;18.27;7.92;;;;;;;3.03;62.15;101181.45;2063142;86;27696;-60
2021/12/21 12:43:04;;;;;;;;;;;;;;;2.91;62.12;101187.66;2057499;84;28235;-63
2021/12/21 12:46:09;;;;;;;17.48;8.23;;;;;;;2.79;61.82;101183.32;2024772;87;31845;-60
2021/12/21 12:49:11;;;;;;;18.25;6.53;;;;;;;2.64;61.85;101185.55;2023391;88;35447;-60
2021/12/21 12:52:20;;;;;;;18.20;8.58;;;;;;;2.55;62.28;101194.84;2002294;88;29390;-61
2021/12/21 12:55:25;;;;;;;19.02;9.65;;;;;;;2.48;62.26;101187.37;2024668;87;27772;-68
2021/12/21 12:58:29;;;;;;;23.70;7.37;;;;;;;2.46;62.53;101194.42;2024293;87;28753;-61
2021/12/21 13:01:33;;;;;;;11.75;5.37;;;;;;;2.44;62.44;101192.22;2024657;87;31122;-62
2021/12/21 13:04:46;;;;;;;12.50;5.45;;;;;;;2.40;62.43;101189.13;2004382;87;33075;-64
2021/12/21 13:07:43;;;;;;;8.90;4.55;;;;;;;2.38;62.64;101189.56;2023817;87;30486;-75
2021/12/21 13:10:55;;;;;;;9.75;3.92;;;;;;;2.35;62.31;101189.56;2025267;87;28072;-66
2021/12/21 13:13:57;;;;;;;9.50;3.20;;;;;;;2.28;61.56;101190.02;2024708;88;30206;-74
2021/12/21 13:16:59;;;;;;;10.58;4.15;;;;;;;2.20;61.55;101188.70;2024098;88;31915;-74
2021/12/21 13:20:03;;;;;;;11.65;5.08;;;;;;;2.17;61.61;101193.13;2024305;87;33408;-75
2021/12/21 13:23:26;;;;;;;24.95;6.75;;;;;;;2.12;62.04;101192.67;2024429;87;29354;-73
2021/12/21 13:26:38;;;;;;;16.10;6.20;;;;;;;2.08;61.53;101186.08;2025245;88;27707;-75
2021/12/21 13:29:42;;;;;;;10.20;5.67;;;;;;;1.97;61.66;101189.61;2016889;87;28676;-74
2021/12/21 13:32:45;;;;;;;11.95;5.80;;;;;;;1.93;61.93;101196.19;2013185;88;31110;-68
2021/12/21 13:35:47;;;;;;;11.00;6.17;;;;;;;1.89;62.11;101194.45;2013220;88;33399;-71
2021/12/21 13:38:49;;;;;;;14.28;5.53;;;;;;;1.84;62.14;101197.06;2013170;88;30516;-76
2021/12/21 13:42:14;;;;;;;12.33;5.33;;;;;;;1.81;62.08;101193.13;2013459;88;28184;-69
2021/12/21 13:45:23;;;;;;;8.85;4.75;;;;;;;1.79;62.27;101193.55;2013433;88;33470;-64
2021/12/21 13:48:39;;;;;;;18.30;6.70;;;;;;;1.74;62.34;101187.38;2012901;88;31175;-74
2021/12/21 13:52:03;;;;;;;12.10;5.97;;;;;;;1.69;62.48;101188.70;2012946;88;33107;-75
2021/12/21 13:55:38;;;;;;;12.73;5.05;;;;;;;1.59;62.32;101191.76;2012730;88;29383;-69
2021/12/21 13:58:55;;;;;;;;;;;;;;;;;;;;;
2021/12/21 14:02:07;;;;;;;26.85;13.05;;;;;;;1.40;62.64;101197.87;2012108;88;27834;-65
2021/12/21 14:05:17;;;;;;;38.10;19.45;;;;;;;1.35;62.82;101196.09;2012609;88;33204;-67
2021/12/21 14:08:46;;;;;;;19.65;10.15;;;;;;;1.29;62.96;101193.88;2055864;85;33153;-77
2021/12/21 14:12:06;;;;;;;21.57;9.33;;;;;;;1.26;63.24;101186.84;2045903;87;30252;-78
2021/12/21 14:15:10;;;;;;;13.08;7.22;;;;;;;1.20;63.27;101192.08;2046172;87;27745;-74
2021/12/21 14:18:37;;;;;;;35.55;16.87;;;;;;;1.17;63.31;101199.98;2046692;87;29138;-66
2021/12/21 14:21:41;;;;;;;134.22;75.15;;;;;;;1.12;63.44;101199.11;2046906;87;31037;-63
2021/12/21 14:24:43;;;;;;;33.30;18.43;;;;;;;1.06;63.65;101196.02;2047598;87;32433;-60
2021/12/21 14:27:45;;;;;;;34.33;18.52;;;;;;;1.01;63.61;101193.78;2047166;87;30498;-74
2021/12/21 14:30:48;;;;;;;33.30;18.85;;;;;;;0.94;63.68;101196.83;2046838;87;27650;-75
2021/12/21 14:33:55;;;;;;;29.80;17.65;;;;;;;0.89;63.74;101202.09;2046926;87;28678;-71
2021/12/21 14:36:57;;;;;;;24.37;12.20;;;;;;;0.86;63.96;101201.17;2047304;87;31429;-78
2021/12/21 14:39:59;;;;;;;39.05;18.40;;;;;;;0.81;64.01;101202.47;2047047;87;34332;-66
2021/12/21 14:43:02;;;;;;;49.42;24.60;;;;;;;0.79;64.08;101204.67;2047071;87;30472;-60
2021/12/21 14:46:04;;;;;;;51.02;23.42;;;;;;;0.77;64.26;101206.41;2022645;87;27745;-64
2021/12/21 14:49:09;;;;;;;35.28;15.70;;;;;;;0.73;64.24;101209.03;2046727;85;28811;-75
2021/12/21 14:52:18;;;;;;;31.52;15.43;;;;;;;0.72;64.43;101205.94;2047122;87;31036;-67
2021/12/21 14:55:23;;;;;;;29.57;14.70;;;;;;;0.71;64.61;101198.03;2015365;87;34238;-64
2021/12/21 14:58:25;;;;;;;22.35;13.68;;;;;;;0.69;64.67;101211.19;2049643;86;29384;-74
2021/12/21 15:01:41;;;;;;;22.55;12.35;;;;;;;0.67;64.56;101205.48;2049423;85;27756;-79
2021/12/21 15:04:43;;;;;;;27.42;14.33;;;;;;;0.63;64.65;101207.64;2008896;87;30001;-71
2021/12/21 15:07:45;;;;;;;23.27;12.33;;;;;;;0.62;64.81;101205.45;2008771;88;32408;-61
2021/12/21 15:10:50;;;;;;;27.50;14.60;;;;;;;0.59;65.04;101203.66;2004851;87;34437;-78
2021/12/21 15:13:52;;;;;;;23.15;12.18;;;;;;;0.57;65.06;101197.53;2002747;88;29378;-60
2021/12/21 15:16:54;;;;;;;25.55;13.88;;;;;;;0.55;65.08;101195.31;2002704;88;27798;-69
2021/12/21 15:19:57;;;;;;;22.50;14.00;;;;;;;0.54;65.25;101202.77;2002879;88;29735;-63